Washington, Mississippi
Current Conditions -  °F | °C
As of 5:35 PM on Monday 22 Dec 2014 (Local Time) from KHEZ Reporting Station
Broken Clouds Broken Clouds  
Wind Chill: 64°   Ceiling: 3600
Heat Index: 64°   Visibility: 10mi
Dew Point: 59°   Wind: 8mph
Humidity: 83%   Direction: 160°SSE
Pressure: 29.64"   Gusts: NA
Location:  31.58°N, 91.3°W
Report Text: KHEZ 222335Z AUTO 16007KT 10SM BKN036 18/15 A2964 RMK AO1
Loading
Personal Weather Stations






























Interactive Weather Map New forecast layout! Learn more

10-Day Weather Forecast

Advertisements
Track Severe Weather on mobile